sensor_id;sensor_type;location;lat;lon;timestamp;pressure;altitude;pressure_sealevel;temperature;humidity
61205;BME280;47068;55.780;37.520;2022-09-09T00:00:14;100672.94;;;9.26;60.51
61205;BME280;47068;55.780;37.520;2022-09-09T00:03:06;100674.16;;;9.22;60.51
61205;BME280;47068;55.780;37.520;2022-09-09T00:05:32;100676.69;;;9.23;60.23
61205;BME280;47068;55.780;37.520;2022-09-09T00:08:03;100673.97;;;9.14;60.54
61205;BME280;47068;55.780;37.520;2022-09-09T00:10:41;100679.59;;;9.20;60.53
61205;BME280;47068;55.780;37.520;2022-09-09T00:21:37;100686.03;;;9.18;60.75
61205;BME280;47068;55.780;37.520;2022-09-09T00:24:38;100680.19;;;9.24;60.53
61205;BME280;47068;55.780;37.520;2022-09-09T00:27:11;100683.28;;;9.29;60.85
61205;BME280;47068;55.780;37.520;2022-09-09T00:29:53;100681.06;;;9.34;61.08
61205;BME280;47068;55.780;37.520;2022-09-09T00:32:21;100636.34;;;9.08;60.29
61205;BME280;47068;55.780;37.520;2022-09-09T00:34:51;100585.25;;;8.65;60.22
61205;BME280;47068;55.780;37.520;2022-09-09T00:37:19;100687.38;;;9.33;60.56
61205;BME280;47068;55.780;37.520;2022-09-09T00:39:47;100690.59;;;9.36;60.63
61205;BME280;47068;55.780;37.520;2022-09-09T00:42:24;100693.84;;;9.40;60.88
61205;BME280;47068;55.780;37.520;2022-09-09T00:45:09;100691.56;;;9.35;59.93
61205;BME280;47068;55.780;37.520;2022-09-09T00:47:52;100691.00;;;9.32;60.54
61205;BME280;47068;55.780;37.520;2022-09-09T00:55:53;100708.16;;;9.28;59.79
61205;BME280;47068;55.780;37.520;2022-09-09T00:58:21;100702.06;;;9.16;60.13
61205;BME280;47068;55.780;37.520;2022-09-09T01:00:52;100689.56;;;9.07;60.27
61205;BME280;47068;55.780;37.520;2022-09-09T01:03:49;100710.88;;;9.17;60.54
61205;BME280;47068;55.780;37.520;2022-09-09T01:06:35;100713.00;;;9.23;60.83
61205;BME280;47068;55.780;37.520;2022-09-09T01:10:07;100696.75;;;9.16;60.83
61205;BME280;47068;55.780;37.520;2022-09-09T01:14:48;100712.50;;;9.29;61.31
61205;BME280;47068;55.780;37.520;2022-09-09T01:17:18;100717.94;;;9.27;60.67
61205;BME280;47068;55.780;37.520;2022-09-09T01:22:37;100714.31;;;9.07;60.56
61205;BME280;47068;55.780;37.520;2022-09-09T01:28:21;100702.16;;;8.84;61.02
61205;BME280;47068;55.780;37.520;2022-09-09T01:30:50;100710.75;;;8.77;61.09
61205;BME280;47068;55.780;37.520;2022-09-09T01:33:17;100728.69;;;8.84;61.60
61205;BME280;47068;55.780;37.520;2022-09-09T01:38:41;100735.06;;;8.82;61.74
61205;BME280;47068;55.780;37.520;2022-09-09T01:41:07;100669.75;;;8.49;62.23
61205;BME280;47068;55.780;37.520;2022-09-09T01:43:34;100736.88;;;8.81;62.07
61205;BME280;47068;55.780;37.520;2022-09-09T01:46:01;100743.44;;;8.77;62.64
61205;BME280;47068;55.780;37.520;2022-09-09T01:48:27;100740.06;;;8.75;62.32
61205;BME280;47068;55.780;37.520;2022-09-09T01:50:52;100749.59;;;8.78;62.68
61205;BME280;47068;55.780;37.520;2022-09-09T01:53:19;100750.66;;;8.75;62.45
61205;BME280;47068;55.780;37.520;2022-09-09T02:01:42;100744.84;;;8.81;62.83
61205;BME280;47068;55.780;37.520;2022-09-09T02:04:40;100739.09;;;8.65;62.23
61205;BME280;47068;55.780;37.520;2022-09-09T02:10:09;100736.34;;;8.66;62.58
61205;BME280;47068;55.780;37.520;2022-09-09T02:12:39;100750.78;;;8.74;62.45
61205;BME280;47068;55.780;37.520;2022-09-09T02:15:30;100765.13;;;8.82;62.31
61205;BME280;47068;55.780;37.520;2022-09-09T02:17:58;100747.78;;;8.67;62.87
61205;BME280;47068;55.780;37.520;2022-09-09T02:20:27;100763.41;;;8.81;62.49
61205;BME280;47068;55.780;37.520;2022-09-09T02:22:56;100763.88;;;8.86;62.82
61205;BME280;47068;55.780;37.520;2022-09-09T02:25:24;100764.47;;;8.90;62.38
61205;BME280;47068;55.780;37.520;2022-09-09T02:27:51;100768.22;;;8.87;62.67
61205;BME280;47068;55.780;37.520;2022-09-09T02:30:18;100766.53;;;8.86;62.95
61205;BME280;47068;55.780;37.520;2022-09-09T02:32:45;100738.16;;;8.66;62.84
61205;BME280;47068;55.780;37.520;2022-09-09T02:35:15;100765.84;;;8.84;62.86
61205;BME280;47068;55.780;37.520;2022-09-09T02:37:42;100772.47;;;8.79;63.29
61205;BME280;47068;55.780;37.520;2022-09-09T02:40:12;100766.97;;;8.71;63.38
61205;BME280;47068;55.780;37.520;2022-09-09T02:42:45;100781.66;;;8.75;63.45
61205;BME280;47068;55.780;37.520;2022-09-09T02:45:19;100779.13;;;8.73;63.32
61205;BME280;47068;55.780;37.520;2022-09-09T02:48:09;100791.22;;;8.66;63.76
61205;BME280;47068;55.780;37.520;2022-09-09T02:51:01;100764.03;;;8.42;63.63
61205;BME280;47068;55.780;37.520;2022-09-09T02:53:43;100773.81;;;8.41;64.23
61205;BME280;47068;55.780;37.520;2022-09-09T02:56:19;100798.00;;;8.48;64.39
61205;BME280;47068;55.780;37.520;2022-09-09T02:58:45;100792.75;;;8.37;64.29
61205;BME280;47068;55.780;37.520;2022-09-09T03:01:11;100795.13;;;8.28;64.56
61205;BME280;47068;55.780;37.520;2022-09-09T03:03:37;100808.50;;;8.27;65.15
61205;BME280;47068;55.780;37.520;2022-09-09T03:06:03;100816.47;;;8.16;65.44
61205;BME280;47068;55.780;37.520;2022-09-09T03:08:30;100781.41;;;7.90;65.66
61205;BME280;47068;55.780;37.520;2022-09-09T03:10:58;100810.31;;;8.04;65.59
61205;BME280;47068;55.780;37.520;2022-09-09T03:13:24;100813.81;;;8.05;65.63
61205;BME280;47068;55.780;37.520;2022-09-09T03:15:50;100820.78;;;8.06;65.76
61205;BME280;47068;55.780;37.520;2022-09-09T03:18:16;100812.72;;;8.07;65.96
61205;BME280;47068;55.780;37.520;2022-09-09T03:20:42;100808.75;;;8.02;65.63
61205;BME280;47068;55.780;37.520;2022-09-09T03:23:08;100814.19;;;8.00;65.94
61205;BME280;47068;55.780;37.520;2022-09-09T03:25:34;100784.78;;;7.81;66.24
61205;BME280;47068;55.780;37.520;2022-09-09T03:28:01;100776.22;;;7.77;65.58
61205;BME280;47068;55.780;37.520;2022-09-09T03:30:27;100815.88;;;8.01;66.20
61205;BME280;47068;55.780;37.520;2022-09-09T03:32:54;100829.13;;;8.01;65.97
61205;BME280;47068;55.780;37.520;2022-09-09T03:35:20;100833.19;;;8.05;65.72
61205;BME280;47068;55.780;37.520;2022-09-09T03:37:46;100828.63;;;8.07;65.90
61205;BME280;47068;55.780;37.520;2022-09-09T03:40:13;100829.34;;;8.09;66.14
61205;BME280;47068;55.780;37.520;2022-09-09T03:42:39;100832.38;;;8.16;65.95
61205;BME280;47068;55.780;37.520;2022-09-09T03:45:05;100840.91;;;8.19;66.21
61205;BME280;47068;55.780;37.520;2022-09-09T03:47:31;100828.63;;;8.29;65.92
61205;BME280;47068;55.780;37.520;2022-09-09T03:49:57;100842.97;;;8.38;65.42
61205;BME280;47068;55.780;37.520;2022-09-09T03:52:22;100833.94;;;8.41;65.59
61205;BME280;47068;55.780;37.520;2022-09-09T03:54:50;100833.47;;;8.36;65.25
61205;BME280;47068;55.780;37.520;2022-09-09T03:57:16;100838.28;;;8.30;65.91
61205;BME280;47068;55.780;37.520;2022-09-09T03:59:42;100842.63;;;8.32;65.79
61205;BME280;47068;55.780;37.520;2022-09-09T04:02:08;100824.91;;;8.21;65.94
61205;BME280;47068;55.780;37.520;2022-09-09T04:04:34;100847.81;;;8.33;65.37
61205;BME280;47068;55.780;37.520;2022-09-09T04:06:59;100794.50;;;8.03;65.13
61205;BME280;47068;55.780;37.520;2022-09-09T04:09:25;100841.78;;;8.31;64.82
61205;BME280;47068;55.780;37.520;2022-09-09T04:11:50;100843.34;;;8.34;65.18
61205;BME280;47068;55.780;37.520;2022-09-09T04:14:16;100850.66;;;8.30;64.78
61205;BME280;47068;55.780;37.520;2022-09-09T04:16:42;100797.06;;;7.93;64.71
61205;BME280;47068;55.780;37.520;2022-09-09T04:19:11;100847.91;;;8.20;64.64
61205;BME280;47068;55.780;37.520;2022-09-09T04:21:39;100847.91;;;8.20;64.23
61205;BME280;47068;55.780;37.520;2022-09-09T04:24:06;100834.28;;;8.14;64.50
61205;BME280;47068;55.780;37.520;2022-09-09T04:26:32;100830.09;;;8.22;64.40
61205;BME280;47068;55.780;37.520;2022-09-09T04:28:58;100854.19;;;8.42;63.98
61205;BME280;47068;55.780;37.520;2022-09-09T04:31:24;100827.56;;;8.32;63.84
61205;BME280;47068;55.780;37.520;2022-09-09T04:33:52;100798.28;;;8.22;64.40
61205;BME280;47068;55.780;37.520;2022-09-09T04:36:18;100830.56;;;8.50;64.03
61205;BME280;47068;55.780;37.520;2022-09-09T04:38:45;100795.75;;;8.32;64.22
61205;BME280;47068;55.780;37.520;2022-09-09T04:41:11;100855.59;;;8.68;64.23
61205;BME280;47068;55.780;37.520;2022-09-09T04:43:38;100836.81;;;8.60;63.93
61205;BME280;47068;55.780;37.520;2022-09-09T04:46:04;100861.25;;;8.75;63.55
61205;BME280;47068;55.780;37.520;2022-09-09T04:48:30;100854.88;;;8.77;63.81
61205;BME280;47068;55.780;37.520;2022-09-09T04:51:06;100857.16;;;8.82;63.12
61205;BME280;47068;55.780;37.520;2022-09-09T04:53:31;100870.19;;;8.85;62.60
61205;BME280;47068;55.780;37.520;2022-09-09T04:56:13;100858.34;;;8.89;62.76
61205;BME280;47068;55.780;37.520;2022-09-09T04:58:40;100857.00;;;8.94;62.24
61205;BME280;47068;55.780;37.520;2022-09-09T05:01:14;100837.94;;;8.89;61.83
61205;BME280;47068;55.780;37.520;2022-09-09T05:03:41;100856.47;;;9.00;61.50
61205;BME280;47068;55.780;37.520;2022-09-09T05:06:13;100858.28;;;9.11;61.81
61205;BME280;47068;55.780;37.520;2022-09-09T05:08:40;100867.88;;;9.23;61.60
61205;BME280;47068;55.780;37.520;2022-09-09T05:11:21;100871.84;;;9.29;61.14
61205;BME280;47068;55.780;37.520;2022-09-09T05:13:48;100859.78;;;9.25;60.31
61205;BME280;47068;55.780;37.520;2022-09-09T05:16:16;100875.47;;;9.48;59.91
61205;BME280;47068;55.780;37.520;2022-09-09T05:18:42;100875.97;;;9.54;59.45
61205;BME280;47068;55.780;37.520;2022-09-09T05:21:08;100873.03;;;9.57;58.89
61205;BME280;47068;55.780;37.520;2022-09-09T05:23:34;100860.25;;;9.51;59.50
61205;BME280;47068;55.780;37.520;2022-09-09T05:26:01;100863.97;;;9.59;58.88
61205;BME280;47068;55.780;37.520;2022-09-09T05:28:29;100885.13;;;9.81;59.13
61205;BME280;47068;55.780;37.520;2022-09-09T05:31:00;100877.38;;;9.99;58.91
61205;BME280;47068;55.780;37.520;2022-09-09T05:33:27;100884.09;;;10.24;57.87
61205;BME280;47068;55.780;37.520;2022-09-09T05:35:59;100882.44;;;10.63;57.94
61205;BME280;47068;55.780;37.520;2022-09-09T05:38:25;100881.41;;;10.94;57.01
61205;BME280;47068;55.780;37.520;2022-09-09T05:40:52;100878.91;;;11.12;55.90
61205;BME280;47068;55.780;37.520;2022-09-09T05:43:18;100878.06;;;11.21;56.03
61205;BME280;47068;55.780;37.520;2022-09-09T05:45:48;100865.44;;;11.23;55.65
61205;BME280;47068;55.780;37.520;2022-09-09T05:48:17;100890.28;;;11.53;54.90
61205;BME280;47068;55.780;37.520;2022-09-09T05:50:43;100887.88;;;11.69;53.34
61205;BME280;47068;55.780;37.520;2022-09-09T05:53:10;100888.03;;;11.77;51.70
61205;BME280;47068;55.780;37.520;2022-09-09T05:55:36;100844.69;;;11.56;52.11
61205;BME280;47068;55.780;37.520;2022-09-09T05:58:01;100873.41;;;11.91;52.04
61205;BME280;47068;55.780;37.520;2022-09-09T06:00:27;100875.69;;;12.32;50.65
61205;BME280;47068;55.780;37.520;2022-09-09T06:02:54;100888.34;;;13.12;47.71
61205;BME280;47068;55.780;37.520;2022-09-09T06:05:24;100888.56;;;15.66;43.97
61205;BME280;47068;55.780;37.520;2022-09-09T06:07:53;100885.88;;;19.09;37.21
61205;BME280;47068;55.780;37.520;2022-09-09T06:10:18;100875.47;;;21.82;31.11
61205;BME280;47068;55.780;37.520;2022-09-09T06:12:44;100879.78;;;24.01;27.07
61205;BME280;47068;55.780;37.520;2022-09-09T06:15:09;100888.97;;;26.57;23.04
61205;BME280;47068;55.780;37.520;2022-09-09T06:17:35;100887.94;;;28.38;20.73
61205;BME280;47068;55.780;37.520;2022-09-09T06:20:00;100882.78;;;29.88;19.54
61205;BME280;47068;55.780;37.520;2022-09-09T06:22:26;100878.19;;;30.82;18.57
61205;BME280;47068;55.780;37.520;2022-09-09T06:24:51;100887.59;;;31.02;17.05
61205;BME280;47068;55.780;37.520;2022-09-09T06:27:18;100888.81;;;28.60;19.49
61205;BME280;47068;55.780;37.520;2022-09-09T06:29:44;100865.75;;;27.51;20.23
61205;BME280;47068;55.780;37.520;2022-09-09T06:32:09;100867.44;;;27.86;20.40
61205;BME280;47068;55.780;37.520;2022-09-09T06:34:35;100893.72;;;27.87;20.77
61205;BME280;47068;55.780;37.520;2022-09-09T06:37:04;100810.28;;;25.79;22.19
61205;BME280;47068;55.780;37.520;2022-09-09T06:39:31;100878.06;;;27.37;21.05
61205;BME280;47068;55.780;37.520;2022-09-09T06:41:57;100881.91;;;29.23;19.17
61205;BME280;47068;55.780;37.520;2022-09-09T06:44:22;100859.00;;;30.98;17.16
61205;BME280;47068;55.780;37.520;2022-09-09T06:46:48;100876.81;;;30.85;17.35
61205;BME280;47068;55.780;37.520;2022-09-09T06:49:13;100877.47;;;29.17;18.41
61205;BME280;47068;55.780;37.520;2022-09-09T06:51:39;100883.91;;;28.24;19.16
61205;BME280;47068;55.780;37.520;2022-09-09T06:54:08;100889.78;;;26.81;20.47
61205;BME280;47068;55.780;37.520;2022-09-09T06:56:41;100892.56;;;25.16;21.39
61205;BME280;47068;55.780;37.520;2022-09-09T06:59:09;100891.44;;;23.83;23.43
61205;BME280;47068;55.780;37.520;2022-09-09T07:01:36;100883.91;;;23.22;24.55
61205;BME280;47068;55.780;37.520;2022-09-09T07:04:03;100898.91;;;24.37;23.74
61205;BME280;47068;55.780;37.520;2022-09-09T07:06:34;100895.31;;;27.26;19.93
61205;BME280;47068;55.780;37.520;2022-09-09T07:09:05;100891.03;;;26.38;20.25
61205;BME280;47068;55.780;37.520;2022-09-09T07:11:36;100896.25;;;26.40;20.68
61205;BME280;47068;55.780;37.520;2022-09-09T07:14:02;100889.97;;;26.39;21.19
61205;BME280;47068;55.780;37.520;2022-09-09T07:16:28;100879.69;;;25.05;22.38
61205;BME280;47068;55.780;37.520;2022-09-09T07:18:54;100906.22;;;24.37;23.16
61205;BME280;47068;55.780;37.520;2022-09-09T07:21:24;100895.81;;;23.84;23.71
61205;BME280;47068;55.780;37.520;2022-09-09T07:23:51;100886.06;;;23.76;24.08
61205;BME280;47068;55.780;37.520;2022-09-09T07:26:20;100908.69;;;23.70;24.00
61205;BME280;47068;55.780;37.520;2022-09-09T07:28:46;100902.63;;;22.92;24.95
61205;BME280;47068;55.780;37.520;2022-09-09T07:31:18;100906.72;;;22.30;26.11
61205;BME280;47068;55.780;37.520;2022-09-09T07:33:44;100909.66;;;22.22;26.14
61205;BME280;47068;55.780;37.520;2022-09-09T07:36:20;100909.84;;;22.47;25.54
61205;BME280;47068;55.780;37.520;2022-09-09T07:38:54;100919.91;;;24.30;23.97
61205;BME280;47068;55.780;37.520;2022-09-09T07:41:25;100922.03;;;27.80;19.94
61205;BME280;47068;55.780;37.520;2022-09-09T07:43:51;100906.56;;;29.45;17.91
61205;BME280;47068;55.780;37.520;2022-09-09T07:46:20;100929.00;;;27.15;19.58
61205;BME280;47068;55.780;37.520;2022-09-09T07:48:48;100922.41;;;28.17;17.68
61205;BME280;47068;55.780;37.520;2022-09-09T07:51:28;100912.28;;;30.02;16.45
61205;BME280;47068;55.780;37.520;2022-09-09T07:53:56;100916.94;;;32.24;14.34
61205;BME280;47068;55.780;37.520;2022-09-09T07:56:26;100915.03;;;30.91;15.68
61205;BME280;47068;55.780;37.520;2022-09-09T07:58:53;100932.25;;;31.29;14.80
61205;BME280;47068;55.780;37.520;2022-09-09T08:01:21;100925.94;;;28.90;16.60
61205;BME280;47068;55.780;37.520;2022-09-09T08:04:02;100929.72;;;25.70;20.14
61205;BME280;47068;55.780;37.520;2022-09-09T08:06:30;100932.53;;;23.24;22.50
61205;BME280;47068;55.780;37.520;2022-09-09T08:08:56;100920.00;;;21.33;25.54
61205;BME280;47068;55.780;37.520;2022-09-09T08:11:23;100935.44;;;20.01;26.54
61205;BME280;47068;55.780;37.520;2022-09-09T08:13:50;100935.97;;;18.97;28.47
61205;BME280;47068;55.780;37.520;2022-09-09T08:16:21;100931.81;;;18.13;30.15
61205;BME280;47068;55.780;37.520;2022-09-09T08:18:48;100929.56;;;17.56;31.19
61205;BME280;47068;55.780;37.520;2022-09-09T08:21:28;100933.91;;;17.65;32.44
61205;BME280;47068;55.780;37.520;2022-09-09T08:23:55;100946.25;;;17.52;32.87
61205;BME280;47068;55.780;37.520;2022-09-09T08:26:26;100826.78;;;16.62;33.23
61205;BME280;47068;55.780;37.520;2022-09-09T08:28:54;100896.91;;;17.14;33.85
61205;BME280;47068;55.780;37.520;2022-09-09T08:31:36;100945.88;;;17.63;32.97
61205;BME280;47068;55.780;37.520;2022-09-09T08:34:03;100943.97;;;17.41;32.95
61205;BME280;47068;55.780;37.520;2022-09-09T08:36:31;100954.50;;;16.88;33.64
61205;BME280;47068;55.780;37.520;2022-09-09T08:38:59;100922.41;;;16.24;34.79
61205;BME280;47068;55.780;37.520;2022-09-09T08:41:47;100961.03;;;16.23;35.00
61205;BME280;47068;55.780;37.520;2022-09-09T08:50:26;100959.53;;;15.88;35.70
61205;BME280;47068;55.780;37.520;2022-09-09T08:58:12;100965.22;;;16.09;34.81
61205;BME280;47068;55.780;37.520;2022-09-09T09:03:38;100971.44;;;16.18;34.49
61205;BME280;47068;55.780;37.520;2022-09-09T09:12:17;100983.06;;;15.44;35.10
61205;BME280;47068;55.780;37.520;2022-09-09T09:14:53;100970.34;;;15.46;35.35
61205;BME280;47068;55.780;37.520;2022-09-09T09:17:23;100963.38;;;15.69;35.07
61205;BME280;47068;55.780;37.520;2022-09-09T09:19:50;100923.06;;;15.45;35.12
61205;BME280;47068;55.780;37.520;2022-09-09T09:25:02;100955.19;;;15.20;35.22
61205;BME280;47068;55.780;37.520;2022-09-09T09:27:33;100953.22;;;15.38;35.82
61205;BME280;47068;55.780;37.520;2022-09-09T09:30:01;100961.53;;;15.61;35.16
61205;BME280;47068;55.780;37.520;2022-09-09T09:32:30;100960.69;;;15.61;34.69
61205;BME280;47068;55.780;37.520;2022-09-09T09:34:58;100970.41;;;15.54;35.36
61205;BME280;47068;55.780;37.520;2022-09-09T09:37:31;100969.31;;;15.38;36.02
61205;BME280;47068;55.780;37.520;2022-09-09T09:40:19;100969.44;;;15.29;37.04
61205;BME280;47068;55.780;37.520;2022-09-09T09:42:50;100962.22;;;15.13;36.84
61205;BME280;47068;55.780;37.520;2022-09-09T09:45:42;100964.09;;;14.79;37.20
61205;BME280;47068;55.780;37.520;2022-09-09T09:48:11;100968.72;;;14.69;38.42
61205;BME280;47068;55.780;37.520;2022-09-09T09:50:58;100968.56;;;14.70;38.13
61205;BME280;47068;55.780;37.520;2022-09-09T09:53:33;100969.69;;;14.68;37.63
61205;BME280;47068;55.780;37.520;2022-09-09T09:56:03;100970.09;;;14.73;37.21
61205;BME280;47068;55.780;37.520;2022-09-09T09:58:32;100975.75;;;14.70;37.17
61205;BME280;47068;55.780;37.520;2022-09-09T10:01:02;100969.66;;;14.59;37.34
61205;BME280;47068;55.780;37.520;2022-09-09T10:03:32;100963.50;;;14.67;37.85
61205;BME280;47068;55.780;37.520;2022-09-09T10:06:03;100966.38;;;14.74;38.08
61205;BME280;47068;55.780;37.520;2022-09-09T10:08:29;100945.41;;;14.61;37.46
61205;BME280;47068;55.780;37.520;2022-09-09T10:18:59;100972.59;;;14.74;39.36
61205;BME280;47068;55.780;37.520;2022-09-09T10:24:35;100964.22;;;15.11;38.40
61205;BME280;47068;55.780;37.520;2022-09-09T10:32:36;100971.69;;;15.42;38.14
61205;BME280;47068;55.780;37.520;2022-09-09T10:35:24;100981.75;;;15.48;38.23
61205;BME280;47068;55.780;37.520;2022-09-09T10:49:17;100982.44;;;15.00;38.80
61205;BME280;47068;55.780;37.520;2022-09-09T10:54:32;100986.28;;;14.97;37.73
61205;BME280;47068;55.780;37.520;2022-09-09T10:57:03;100977.06;;;15.00;37.24
61205;BME280;47068;55.780;37.520;2022-09-09T10:59:38;100974.22;;;15.01;36.14
61205;BME280;47068;55.780;37.520;2022-09-09T11:02:13;100976.63;;;15.12;35.84
61205;BME280;47068;55.780;37.520;2022-09-09T11:04:49;100976.81;;;15.19;35.38
61205;BME280;47068;55.780;37.520;2022-09-09T11:09:56;100958.19;;;15.17;34.31
61205;BME280;47068;55.780;37.520;2022-09-09T11:12:23;100968.63;;;15.36;34.79
61205;BME280;47068;55.780;37.520;2022-09-09T11:15:14;100971.41;;;15.61;34.79
61205;BME280;47068;55.780;37.520;2022-09-09T11:17:58;100963.19;;;15.79;34.38
61205;BME280;47068;55.780;37.520;2022-09-09T11:20:25;100964.91;;;15.96;34.88
61205;BME280;47068;55.780;37.520;2022-09-09T11:22:52;100960.84;;;15.84;33.33
61205;BME280;47068;55.780;37.520;2022-09-09T11:25:24;100966.97;;;15.44;34.22
61205;BME280;47068;55.780;37.520;2022-09-09T11:33:55;100975.19;;;14.58;36.94
61205;BME280;47068;55.780;37.520;2022-09-09T11:36:34;100978.59;;;14.42;37.78
61205;BME280;47068;55.780;37.520;2022-09-09T11:44:37;100974.69;;;14.37;39.25
61205;BME280;47068;55.780;37.520;2022-09-09T11:47:03;100970.28;;;14.53;39.56
61205;BME280;47068;55.780;37.520;2022-09-09T11:49:42;100982.94;;;14.69;39.09
61205;BME280;47068;55.780;37.520;2022-09-09T11:52:35;100955.25;;;14.61;38.92
61205;BME280;47068;55.780;37.520;2022-09-09T11:55:09;100979.97;;;14.72;38.81
61205;BME280;47068;55.780;37.520;2022-09-09T11:57:38;100975.84;;;14.52;38.18
61205;BME280;47068;55.780;37.520;2022-09-09T12:00:05;100970.91;;;14.22;38.42
61205;BME280;47068;55.780;37.520;2022-09-09T12:02:31;100968.03;;;13.97;38.41
61205;BME280;47068;55.780;37.520;2022-09-09T12:05:08;100973.69;;;13.94;38.59
61205;BME280;47068;55.780;37.520;2022-09-09T12:07:56;100940.84;;;13.66;38.96
61205;BME280;47068;55.780;37.520;2022-09-09T12:10:29;100970.66;;;13.89;39.16
61205;BME280;47068;55.780;37.520;2022-09-09T12:12:55;100964.47;;;13.89;38.60
61205;BME280;47068;55.780;37.520;2022-09-09T12:15:26;100970.66;;;13.89;38.36
61205;BME280;47068;55.780;37.520;2022-09-09T12:17:56;100952.53;;;13.65;38.62
61205;BME280;47068;55.780;37.520;2022-09-09T12:20:34;100966.00;;;13.73;37.55
61205;BME280;47068;55.780;37.520;2022-09-09T12:29:01;100973.84;;;13.93;38.33
61205;BME280;47068;55.780;37.520;2022-09-09T12:31:40;100967.88;;;13.99;39.69
61205;BME280;47068;55.780;37.520;2022-09-09T12:34:11;100967.50;;;13.94;39.10
61205;BME280;47068;55.780;37.520;2022-09-09T12:36:40;100964.47;;;13.89;39.42
61205;BME280;47068;55.780;37.520;2022-09-09T12:39:28;100972.41;;;13.80;40.12
61205;BME280;47068;55.780;37.520;2022-09-09T12:41:56;100972.63;;;13.69;40.54
61205;BME280;47068;55.780;37.520;2022-09-09T12:44:25;100940.53;;;13.52;40.64
61205;BME280;47068;55.780;37.520;2022-09-09T12:46:54;100971.56;;;13.62;41.17
61205;BME280;47068;55.780;37.520;2022-09-09T12:49:35;100965.22;;;13.63;40.93
61205;BME280;47068;55.780;37.520;2022-09-09T12:52:16;100963.28;;;13.56;42.22
61205;BME280;47068;55.780;37.520;2022-09-09T12:54:47;100968.13;;;13.52;42.67
61205;BME280;47068;55.780;37.520;2022-09-09T12:57:13;100967.84;;;13.55;42.99
61205;BME280;47068;55.780;37.520;2022-09-09T12:59:42;100967.00;;;13.55;42.34
61205;BME280;47068;55.780;37.520;2022-09-09T13:02:22;100961.88;;;13.61;42.64
61205;BME280;47068;55.780;37.520;2022-09-09T13:04:49;100966.28;;;13.70;41.80
61205;BME280;47068;55.780;37.520;2022-09-09T13:07:17;100939.16;;;13.65;42.26
61205;BME280;47068;55.780;37.520;2022-09-09T13:09:43;100960.72;;;13.82;41.19
61205;BME280;47068;55.780;37.520;2022-09-09T13:12:15;100968.13;;;13.88;39.97
61205;BME280;47068;55.780;37.520;2022-09-09T13:14:45;100942.38;;;13.69;41.03
61205;BME280;47068;55.780;37.520;2022-09-09T13:17:22;100964.91;;;13.84;40.38
61205;BME280;47068;55.780;37.520;2022-09-09T13:19:48;100963.63;;;13.88;40.25
61205;BME280;47068;55.780;37.520;2022-09-09T13:22:35;100963.84;;;13.95;40.17
61205;BME280;47068;55.780;37.520;2022-09-09T13:25:16;100941.66;;;13.85;39.70
61205;BME280;47068;55.780;37.520;2022-09-09T13:27:55;100963.72;;;14.04;40.16
61205;BME280;47068;55.780;37.520;2022-09-09T13:33:03;100965.34;;;14.15;39.72
61205;BME280;47068;55.780;37.520;2022-09-09T13:35:29;100960.66;;;14.17;39.29
61205;BME280;47068;55.780;37.520;2022-09-09T13:37:54;100955.00;;;14.20;39.89
61205;BME280;47068;55.780;37.520;2022-09-09T13:40:21;100959.91;;;14.33;38.85
61205;BME280;47068;55.780;37.520;2022-09-09T13:42:52;100959.47;;;14.37;38.94
61205;BME280;47068;55.780;37.520;2022-09-09T13:45:23;100963.88;;;14.46;38.64
61205;BME280;47068;55.780;37.520;2022-09-09T13:47:52;100962.66;;;14.58;38.90
61205;BME280;47068;55.780;37.520;2022-09-09T13:50:28;100968.50;;;14.62;38.80
61205;BME280;47068;55.780;37.520;2022-09-09T13:52:56;100948.75;;;14.37;38.49
61205;BME280;47068;55.780;37.520;2022-09-09T13:55:25;100953.16;;;14.20;38.91
61205;BME280;47068;55.780;37.520;2022-09-09T14:00:25;100953.69;;;13.80;39.42
61205;BME280;47068;55.780;37.520;2022-09-09T14:02:51;100955.81;;;13.77;39.44
61205;BME280;47068;55.780;37.520;2022-09-09T14:05:17;100951.84;;;13.81;39.80
61205;BME280;47068;55.780;37.520;2022-09-09T14:07:44;100954.19;;;13.84;39.18
61205;BME280;47068;55.780;37.520;2022-09-09T14:10:10;100950.25;;;13.88;39.63
61205;BME280;47068;55.780;37.520;2022-09-09T14:12:35;100951.75;;;13.91;40.23
61205;BME280;47068;55.780;37.520;2022-09-09T14:15:03;100950.47;;;13.95;40.56
61205;BME280;47068;55.780;37.520;2022-09-09T14:17:33;100957.03;;;14.00;40.61
61205;BME280;47068;55.780;37.520;2022-09-09T14:20:00;100952.50;;;14.01;41.18
61205;BME280;47068;55.780;37.520;2022-09-09T14:22:26;100958.84;;;14.00;40.64
61205;BME280;47068;55.780;37.520;2022-09-09T14:24:54;100950.69;;;14.01;40.24
61205;BME280;47068;55.780;37.520;2022-09-09T14:27:19;100954.56;;;14.07;39.96
61205;BME280;47068;55.780;37.520;2022-09-09T14:29:44;100913.28;;;13.92;39.97
61205;BME280;47068;55.780;37.520;2022-09-09T14:32:11;100917.16;;;13.89;40.11
61205;BME280;47068;55.780;37.520;2022-09-09T14:34:36;100951.59;;;14.10;40.21
61205;BME280;47068;55.780;37.520;2022-09-09T14:37:02;100928.91;;;13.96;40.41
61205;BME280;47068;55.780;37.520;2022-09-09T14:39:27;100958.91;;;14.08;40.23
61205;BME280;47068;55.780;37.520;2022-09-09T14:41:53;100955.19;;;14.01;39.99
61205;BME280;47068;55.780;37.520;2022-09-09T14:44:18;100960.78;;;13.90;40.05
61205;BME280;47068;55.780;37.520;2022-09-09T14:46:44;100963.41;;;13.82;40.70
61205;BME280;47068;55.780;37.520;2022-09-09T14:49:09;100963.00;;;13.76;40.62
61205;BME280;47068;55.780;37.520;2022-09-09T14:51:38;100875.38;;;13.17;40.79